Time;durP1;ratioP1;P1;durP2;ratioP2;P2;SDS_P1;SDS_P2;PMS_P1;PMS_P2;Temp;Humidity;BMP_temperature;BMP_pressure;BME280_temperature;BME280_humidity;BME280_pressure;Samples;Min_cycle;Max_cycle;Signal;HPM_P1;HPM_P2
2024/03/29 01:43:48;;;;;;;3.57;2.10;;;8.00;99.90;;;;;;5039641;28;20462;-59
2024/03/29 01:46:16;;;;;;;3.43;2.00;;;8.00;99.90;;;;;;5057172;28;20899;-59
2024/03/29 01:48:42;;;;;;;5.10;1.60;;;8.10;99.90;;;;;;5057166;28;20428;-59
2024/03/29 01:51:13;;;;;;;2.87;1.80;;;8.10;1.00;;;;;;5058746;28;20462;-58
2024/03/29 01:53:41;;;;;;;3.83;1.90;;;8.20;99.90;;;;;;5058167;28;20498;-59
2024/03/29 01:56:09;;;;;;;4.50;1.90;;;8.20;99.90;;;;;;5057125;28;20973;-58
2024/03/29 01:58:39;;;;;;;3.77;1.80;;;8.30;99.90;;;;;;5057161;28;20490;-59
2024/03/29 02:01:08;;;;;;;2.60;1.53;;;8.40;99.90;;;;;;5058538;28;20519;-59
2024/03/29 02:03:35;;;;;;;4.17;1.70;;;8.40;1.00;;;;;;5058549;28;20856;-58
2024/03/29 02:06:03;;;;;;;2.80;1.30;;;8.40;99.90;;;;;;5057254;28;20494;-59
2024/03/29 02:08:30;;;;;;;3.10;1.80;;;8.50;99.90;;;;;;5056373;28;20454;-59
2024/03/29 02:10:58;;;;;;;3.70;1.70;;;8.50;1.00;;;;;;5056592;28;20490;-59
2024/03/29 02:13:26;;;;;;;4.83;2.00;;;8.50;1.00;;;;;;5058287;28;20556;-59
2024/03/29 02:15:54;;;;;;;7.80;2.13;;;8.60;1.00;;;;;;5058298;28;20545;-59
2024/03/29 02:18:22;;;;;;;3.80;1.93;;;8.60;1.00;;;;;;5057948;28;20801;-58
2024/03/29 02:20:49;;;;;;;3.70;1.97;;;8.70;1.00;;;;;;5057740;28;20531;-60
2024/03/29 02:23:21;;;;;;;4.73;2.10;;;8.70;99.90;;;;;;5056482;28;20457;-59
2024/03/29 02:25:49;;;;;;;4.83;2.07;;;8.70;99.90;;;;;;5055962;28;20462;-59
2024/03/29 02:28:18;;;;;;;5.70;1.80;;;8.70;99.90;;;;;;5056625;28;20512;-59
2024/03/29 02:30:45;;;;;;;3.33;1.87;;;8.70;99.90;;;;;;5056726;28;20537;-60
2024/03/29 02:33:12;;;;;;;3.53;2.00;;;8.70;1.00;;;;;;5056431;28;20831;-59
2024/03/29 02:35:39;;;;;;;3.80;2.10;;;8.70;86.80;;;;;;5056403;28;20805;-59
2024/03/29 02:38:06;;;;;;;4.90;1.93;;;8.70;1.00;;;;;;5055826;28;20567;-59
2024/03/29 02:40:34;;;;;;;4.40;1.90;;;8.70;99.90;;;;;;5056102;28;20458;-59
2024/03/29 02:43:02;;;;;;;5.00;1.93;;;8.70;1.00;;;;;;5056056;28;20458;-59
2024/03/29 02:45:30;;;;;;;3.80;2.27;;;8.70;1.00;;;;;;5056251;28;20494;-59
2024/03/29 02:47:56;;;;;;;3.50;1.80;;;8.80;1.00;;;;;;5056725;28;20426;-58
2024/03/29 02:50:23;;;;;;;2.97;1.90;;;8.90;94.60;;;;;;5057597;28;20486;-58
2024/03/29 02:52:50;;;;;;;3.13;2.30;;;8.90;99.90;;;;;;5057579;28;20887;-59
2024/03/29 02:55:16;;;;;;;10.43;2.53;;;8.90;86.90;;;;;;5057589;28;20462;-59
2024/03/29 02:57:44;;;;;;;2.30;1.60;;;8.80;99.90;;;;;;5057722;28;20486;-59
2024/03/29 03:00:13;;;;;;;4.20;2.40;;;8.80;1.00;;;;;;5057222;28;20458;-59
2024/03/29 03:02:40;;;;;;;4.40;2.13;;;8.70;1.00;;;;;;5057628;28;20471;-60
2024/03/29 03:05:07;;;;;;;8.10;2.17;;;8.70;1.00;;;;;;5057520;28;20465;-60
2024/03/29 03:13:05;;;;;;;3.30;1.60;;;8.50;99.90;;;;;;5056942;28;20437;-64
2024/03/29 03:15:33;;;;;;;5.43;2.43;;;8.40;1.00;;;;;;5057308;28;20520;-62
2024/03/29 03:18:01;;;;;;;3.53;1.80;;;8.30;1.00;;;;;;5056877;28;21014;-63
2024/03/29 03:20:31;;;;;;;4.70;1.97;;;8.40;99.90;;;;;;5057511;28;20469;-64
2024/03/29 03:22:59;;;;;;;5.63;1.67;;;8.40;99.90;;;;;;5057251;28;20462;-64
2024/03/29 03:25:27;;;;;;;3.27;1.80;;;8.30;99.90;;;;;;5056363;28;20501;-64
2024/03/29 03:27:54;;;;;;;6.17;2.07;;;8.30;99.90;;;;;;5055981;28;20465;-63
2024/03/29 03:30:20;;;;;;;4.93;1.73;;;8.20;38.30;;;;;;5055906;28;20556;-64
2024/03/29 03:32:49;;;;;;;3.43;1.83;;;8.10;1.00;;;;;;5056630;28;20541;-66
2024/03/29 03:35:15;;;;;;;2.93;1.97;;;8.10;1.00;;;;;;5055961;28;20513;-65
2024/03/29 03:37:42;;;;;;;4.83;2.10;;;8.00;99.90;;;;;;5056672;28;20784;-65
2024/03/29 03:40:09;;;;;;;3.20;2.20;;;8.00;99.90;;;;;;5055158;28;20549;-64
2024/03/29 03:42:36;;;;;;;4.13;2.23;;;8.00;1.00;;;;;;5055167;28;20454;-63
2024/03/29 03:45:03;;;;;;;4.93;2.60;;;8.10;99.90;;;;;;5055113;28;20462;-64
2024/03/29 03:47:31;;;;;;;3.63;2.80;;;8.00;99.90;;;;;;5055553;28;20942;-64
2024/03/29 03:49:58;;;;;;;2.87;1.97;;;8.00;99.90;;;;;;5055158;28;20943;-64
2024/03/29 03:52:25;;;;;;;2.60;1.73;;;8.00;1.00;;;;;;5054985;28;20466;-64
2024/03/29 03:54:52;;;;;;;4.50;1.97;;;8.00;1.00;;;;;;5054916;28;20500;-63
2024/03/29 03:57:19;;;;;;;4.57;1.63;;;8.00;99.90;;;;;;5055345;28;20465;-64
2024/03/29 03:59:45;;;;;;;3.70;2.03;;;8.00;99.90;;;;;;5055609;28;20526;-63
2024/03/29 04:02:12;;;;;;;4.83;2.20;;;7.90;99.90;;;;;;5057959;28;20897;-64
2024/03/29 04:04:39;;;;;;;3.80;2.07;;;8.00;99.90;;;;;;5059166;28;20745;-63
2024/03/29 04:07:07;;;;;;;3.27;2.23;;;7.90;99.90;;;;;;5060700;28;20458;-63
2024/03/29 04:09:33;;;;;;;5.33;3.40;;;8.00;1.00;;;;;;5060519;28;20511;-62
2024/03/29 04:12:01;;;;;;;5.40;2.20;;;8.00;1.00;;;;;;5060764;28;20973;-62
2024/03/29 04:14:28;;;;;;;3.80;2.13;;;8.00;99.90;;;;;;5060110;28;20551;-63
2024/03/29 04:16:54;;;;;;;3.80;2.10;;;8.10;90.70;;;;;;5059038;28;20749;-62
2024/03/29 04:19:21;;;;;;;4.50;2.40;;;8.10;99.90;;;;;;5060640;28;20508;-62
2024/03/29 04:21:47;;;;;;;4.47;2.00;;;8.10;99.90;;;;;;5060282;28;20544;-62
2024/03/29 04:24:16;;;;;;;3.70;2.10;;;8.10;99.90;;;;;;5060458;28;20458;-63
2024/03/29 04:26:44;;;;;;;3.20;2.23;;;8.10;1.00;;;;;;5060111;28;20954;-64
2024/03/29 04:29:11;;;;;;;3.93;2.13;;;8.10;1.00;;;;;;5060187;28;20454;-62
2024/03/29 04:31:37;;;;;;;4.17;2.03;;;8.10;99.90;;;;;;5059652;28;20429;-62
2024/03/29 04:34:05;;;;;;;5.63;2.10;;;8.10;99.90;;;;;;5059518;28;20961;-63
2024/03/29 04:36:31;;;;;;;5.57;2.20;;;8.10;1.00;;;;;;5059028;28;20500;-65
2024/03/29 04:38:59;;;;;;;6.70;2.43;;;8.00;99.90;;;;;;5058534;28;20576;-64
2024/03/29 04:41:27;;;;;;;6.03;2.50;;;8.00;27.10;;;;;;5058497;28;20560;-63
2024/03/29 04:43:54;;;;;;;4.70;2.17;;;8.00;99.90;;;;;;5058395;28;20519;-65
2024/03/29 04:46:22;;;;;;;5.10;2.00;;;8.00;99.90;;;;;;5058087;28;20811;-65
2024/03/29 04:48:51;;;;;;;3.80;2.17;;;8.00;1.00;;;;;;5058451;28;20500;-66
2024/03/29 04:51:18;;;;;;;3.53;1.80;;;8.00;99.90;;;;;;5058874;28;20815;-66
2024/03/29 04:53:45;;;;;;;3.87;2.23;;;8.00;1.00;;;;;;5059747;28;20494;-65
2024/03/29 04:56:12;;;;;;;4.83;2.20;;;7.90;1.00;;;;;;5059311;28;20458;-66
2024/03/29 04:58:41;;;;;;;5.73;2.80;;;7.80;70.30;;;;;;5059618;28;20585;-65
2024/03/29 05:01:08;;;;;;;5.33;2.43;;;7.80;99.90;;;;;;5058842;28;20469;-67
2024/03/29 05:03:36;;;;;;;3.80;2.40;;;7.80;1.00;;;;;;5059717;28;20548;-67
2024/03/29 05:06:04;;;;;;;3.80;2.23;;;7.70;39.10;;;;;;5059135;28;20462;-65
2024/03/29 05:08:31;;;;;;;4.20;2.60;;;7.60;1.00;;;;;;5059207;28;20462;-67
2024/03/29 05:10:58;;;;;;;7.70;2.73;;;7.60;1.00;;;;;;5059257;28;20486;-66
2024/03/29 05:13:26;;;;;;;4.83;2.27;;;7.50;99.90;;;;;;5059248;28;20488;-67
2024/03/29 05:15:54;;;;;;;7.10;2.77;;;7.50;99.90;;;;;;5058793;28;20798;-67
2024/03/29 05:18:21;;;;;;;4.43;2.20;;;7.50;99.90;;;;;;5058370;28;20584;-66
2024/03/29 05:20:50;;;;;;;6.43;2.47;;;7.50;99.90;;;;;;5058842;28;20497;-67
2024/03/29 05:23:18;;;;;;;3.00;2.23;;;7.50;99.90;;;;;;5058628;28;20498;-67
2024/03/29 05:25:45;;;;;;;3.27;1.90;;;7.40;1.00;;;;;;5079001;28;20476;-67
2024/03/29 05:28:12;;;;;;;6.40;2.67;;;7.40;99.90;;;;;;5098695;28;20550;-68
2024/03/29 05:30:39;;;;;;;4.60;2.63;;;7.40;1.00;;;;;;5098865;28;20486;-67
2024/03/29 05:33:08;;;;;;;7.30;2.53;;;7.50;25.30;;;;;;5097799;28;21010;-68
2024/03/29 05:35:35;;;;;;;5.23;2.30;;;7.50;99.90;;;;;;5097172;28;20563;-69
2024/03/29 05:38:02;;;;;;;5.97;2.93;;;7.40;15.30;;;;;;5097322;28;20493;-69
2024/03/29 05:40:30;;;;;;;2.80;1.90;;;7.50;1.00;;;;;;5097130;28;20498;-68
2024/03/29 05:42:57;;;;;;;4.57;2.57;;;7.40;1.00;;;;;;5096592;28;21004;-68
2024/03/29 05:45:26;;;;;;;3.67;2.10;;;7.40;1.00;;;;;;5097380;28;20581;-66
2024/03/29 05:47:55;;;;;;;5.07;2.73;;;7.40;99.90;;;;;;5098317;28;20457;-69
2024/03/29 05:50:25;;;;;;;4.70;2.20;;;7.30;99.90;;;;;;5098921;28;20790;-67
2024/03/29 05:52:53;;;;;;;5.67;2.77;;;7.30;1.00;;;;;;5098761;28;20484;-66
2024/03/29 05:55:20;;;;;;;4.10;2.17;;;7.40;1.00;;;;;;5098560;28;20456;-68
2024/03/29 05:57:48;;;;;;;6.67;2.73;;;7.40;99.90;;;;;;5098510;28;20867;-68
2024/03/29 06:00:16;;;;;;;4.93;2.40;;;7.40;1.00;;;;;;5098277;28;20814;-64
2024/03/29 06:02:45;;;;;;;3.77;2.43;;;7.40;1.00;;;;;;5091421;28;20503;-66
2024/03/29 06:05:13;;;;;;;7.67;2.60;;;7.40;99.90;;;;;;5078653;28;20462;-67
2024/03/29 06:07:41;;;;;;;5.77;2.40;;;7.30;99.90;;;;;;5078556;28;20560;-67
2024/03/29 06:10:10;;;;;;;4.90;2.40;;;7.40;6.80;;;;;;5077737;28;20524;-67
2024/03/29 06:12:38;;;;;;;3.17;2.10;;;7.30;99.90;;;;;;5077610;28;20957;-67
2024/03/29 06:17:52;;;;;;;4.80;2.13;;;7.40;1.00;;;;;;5077768;28;20441;-67
2024/03/29 06:20:19;;;;;;;3.20;2.20;;;7.40;91.00;;;;;;5077794;28;20461;-67
2024/03/29 06:22:48;;;;;;;8.13;3.50;;;7.40;99.90;;;;;;5077762;28;20545;-66
2024/03/29 06:25:15;;;;;;;7.17;4.33;;;7.40;90.30;;;;;;5077678;28;20442;-67
2024/03/29 06:27:47;;;;;;;6.43;4.30;;;7.40;1.00;;;;;;5078108;28;20741;-66
2024/03/29 06:30:16;;;;;;;7.63;4.20;;;7.40;1.00;;;;;;5078267;28;20492;-64
2024/03/29 06:32:44;;;;;;;4.33;3.73;;;7.50;1.00;;;;;;5078100;28;20468;-68
2024/03/29 06:35:12;;;;;;;5.53;3.13;;;7.50;99.90;;;;;;5077861;28;20465;-65
2024/03/29 06:37:40;;;;;;;7.50;4.60;;;7.50;99.90;;;;;;5078071;28;20555;-69
2024/03/29 06:40:10;;;;;;;5.80;3.93;;;7.60;1.00;;;;;;5077383;28;20542;-67
2024/03/29 06:42:37;;;;;;;7.10;5.17;;;7.60;99.90;;;;;;5077720;28;20458;-67
2024/03/29 06:45:05;;;;;;;5.87;3.80;;;7.60;99.90;;;;;;5077520;28;20816;-65
2024/03/29 06:47:32;;;;;;;4.20;3.13;;;7.70;99.90;;;;;;5077958;28;20763;-70
2024/03/29 06:50:00;;;;;;;13.30;7.30;;;7.70;1.00;;;;;;5077107;28;20463;-67
2024/03/29 06:52:27;;;;;;;7.17;5.20;;;7.80;96.80;;;;;;5077533;28;20565;-69
2024/03/29 06:54:54;;;;;;;6.47;4.17;;;7.80;1.00;;;;;;5077641;28;20481;-70
2024/03/29 06:57:25;;;;;;;11.00;5.73;;;7.90;1.00;;;;;;5077727;28;20500;-67
2024/03/29 06:59:52;;;;;;;11.83;8.13;;;7.90;24.70;;;;;;5077648;28;20490;-66
2024/03/29 07:02:20;;;;;;;4.53;3.50;;;8.00;1.00;;;;;;5077679;28;20895;-71
2024/03/29 07:04:47;;;;;;;5.90;4.03;;;8.10;1.00;;;;;;5078062;28;20547;-70
2024/03/29 07:07:14;;;;;;;6.20;3.80;;;8.10;1.00;;;;;;5077846;28;20462;-73
2024/03/29 07:09:41;;;;;;;6.77;4.03;;;8.20;1.00;;;;;;5078186;28;20560;-70
2024/03/29 07:12:09;;;;;;;5.10;3.93;;;8.20;1.00;;;;;;5078532;28;20465;-71
2024/03/29 07:14:37;;;;;;;6.73;4.30;;;8.20;99.90;;;;;;5078961;28;20847;-71
2024/03/29 07:17:05;;;;;;;5.20;2.50;;;8.30;1.00;;;;;;5059206;28;20490;-70
2024/03/29 07:19:33;;;;;;;5.07;3.00;;;8.40;99.90;;;;;;5057554;28;20572;-71
2024/03/29 07:22:00;;;;;;;4.23;3.50;;;8.40;75.40;;;;;;5057176;28;20470;-71
2024/03/29 07:24:27;;;;;;;3.77;2.20;;;8.50;1.00;;;;;;5057755;28;20804;-70
2024/03/29 07:26:54;;;;;;;5.97;2.30;;;8.50;99.90;;;;;;5057754;28;20824;-73
2024/03/29 07:29:22;;;;;;;4.70;3.77;;;8.60;1.00;;;;;;5057839;28;20562;-69
2024/03/29 07:31:50;;;;;;;3.40;2.23;;;8.70;99.90;;;;;;5058924;28;20462;-69
2024/03/29 07:34:18;;;;;;;7.70;3.57;;;8.70;1.00;;;;;;5057558;28;20462;-68
2024/03/29 07:36:45;;;;;;;5.93;3.30;;;8.80;99.90;;;;;;5059793;28;20493;-71
2024/03/29 07:39:12;;;;;;;9.37;3.80;;;8.80;99.90;;;;;;5061315;28;20494;-67
2024/03/29 07:41:39;;;;;;;4.80;2.60;;;8.80;1.00;;;;;;5061318;28;20816;-69
2024/03/29 07:44:08;;;;;;;5.67;3.30;;;8.80;99.90;;;;;;5060819;28;20490;-67
2024/03/29 07:46:37;;;;;;;4.17;3.10;;;8.80;99.90;;;;;;5060696;28;20458;-67
2024/03/29 07:49:06;;;;;;;6.90;3.37;;;8.80;1.00;;;;;;5060705;28;20454;-67
2024/03/29 07:51:33;;;;;;;5.70;2.90;;;8.90;1.00;;;;;;5061212;28;20458;-67
2024/03/29 07:54:00;;;;;;;6.73;3.60;;;9.00;97.50;;;;;;5060624;28;20480;-67
2024/03/29 07:56:27;;;;;;;3.80;2.47;;;9.00;1.00;;;;;;5060471;28;20561;-65
2024/03/29 07:58:55;;;;;;;4.97;2.70;;;9.00;1.00;;;;;;5061010;28;20501;-67
2024/03/29 08:01:23;;;;;;;3.17;2.07;;;9.10;1.00;;;;;;5060337;28;20458;-65
2024/03/29 08:03:54;;;;;;;5.67;2.57;;;9.20;1.00;;;;;;5060709;28;20497;-65
2024/03/29 08:06:24;;;;;;;3.73;2.37;;;9.20;99.90;;;;;;5060756;28;20544;-66
2024/03/29 08:08:51;;;;;;;7.67;3.30;;;9.20;1.00;;;;;;5060606;28;20428;-66
2024/03/29 08:11:19;;;;;;;3.80;2.20;;;9.30;71.50;;;;;;5060025;28;20467;-66
2024/03/29 08:13:46;;;;;;;3.73;2.63;;;9.30;46.80;;;;;;5060566;28;20548;-65
2024/03/29 08:16:16;;;;;;;4.00;2.13;;;9.30;1.00;;;;;;5060377;28;20458;-64
2024/03/29 08:18:44;;;;;;;3.37;1.60;;;9.40;99.90;;;;;;5060077;28;20462;-65
2024/03/29 08:21:12;;;;;;;4.40;2.00;;;9.40;1.00;;;;;;5060307;28;20512;-65
2024/03/29 08:23:43;;;;;;;2.90;2.30;;;9.40;20.00;;;;;;5060285;28;20464;-64
2024/03/29 08:26:12;;;;;;;3.63;2.30;;;9.50;1.00;;;;;;5060244;28;20814;-64
2024/03/29 08:28:40;;;;;;;3.90;2.30;;;9.50;1.00;;;;;;5060423;28;20875;-64
2024/03/29 08:31:09;;;;;;;4.17;2.37;;;9.50;38.10;;;;;;5060151;28;20462;-64
2024/03/29 08:33:38;;;;;;;3.10;2.10;;;9.50;99.90;;;;;;5060442;28;20523;-64
2024/03/29 08:36:08;;;;;;;3.27;1.90;;;9.50;11.80;;;;;;5059671;28;20553;-67
2024/03/29 08:38:36;;;;;;;2.70;1.87;;;9.60;99.90;;;;;;5059540;28;20803;-68
2024/03/29 08:41:05;;;;;;;5.03;2.47;;;9.60;99.90;;;;;;5059975;28;20749;-69
2024/03/29 08:43:32;;;;;;;3.57;2.40;;;9.60;1.00;;;;;;5059722;28;20892;-68
2024/03/29 08:46:00;;;;;;;3.37;1.60;;;9.70;99.90;;;;;;5059174;28;20462;-68
2024/03/29 08:48:28;;;;;;;3.43;1.80;;;9.70;14.20;;;;;;5059329;28;20485;-67
2024/03/29 08:50:56;;;;;;;4.40;2.10;;;9.80;99.90;;;;;;5059685;28;20562;-68
2024/03/29 08:53:23;;;;;;;3.67;1.90;;;9.80;99.90;;;;;;5076401;28;20488;-67
2024/03/29 08:55:51;;;;;;;2.97;1.90;;;9.90;99.90;;;;;;5079879;28;20481;-67
2024/03/29 08:58:20;;;;;;;2.90;1.80;;;9.90;92.80;;;;;;5073952;28;20473;-67
2024/03/29 09:00:55;;;;;;;3.90;2.00;;;9.90;99.90;;;;;;5059071;28;20524;-67
2024/03/29 09:03:23;;;;;;;2.90;2.13;;;10.00;1.00;;;;;;5059023;28;20492;-67
2024/03/29 09:05:50;;;;;;;3.73;2.00;;;10.20;99.90;;;;;;5057651;28;20808;-66
2024/03/29 09:08:18;;;;;;;3.20;1.97;;;10.30;1.00;;;;;;5056142;28;20458;-67
2024/03/29 09:10:48;;;;;;;2.80;1.80;;;10.30;99.90;;;;;;5072928;28;20474;-67
2024/03/29 09:13:15;;;;;;;4.07;1.93;;;10.30;1.00;;;;;;5077865;28;20468;-66
2024/03/29 09:15:44;;;;;;;3.47;1.80;;;10.30;99.90;;;;;;5078174;28;20458;-66
2024/03/29 09:18:17;;;;;;;3.53;1.80;;;10.40;29.30;;;;;;5077557;28;20461;-66
2024/03/29 09:20:45;;;;;;;4.10;2.40;;;10.50;1.00;;;;;;5075981;28;20516;-67
2024/03/29 09:23:17;;;;;;;3.50;1.93;;;10.50;18.60;;;;;;5058945;28;20462;-66
2024/03/29 09:25:44;;;;;;;5.83;2.40;;;10.50;1.00;;;;;;5056853;28;20527;-65
2024/03/29 09:28:12;;;;;;;2.60;1.60;;;10.50;1.00;;;;;;5056383;28;20492;-66
2024/03/29 09:30:39;;;;;;;4.20;2.00;;;10.60;99.90;;;;;;5056389;28;20486;-66
2024/03/29 09:33:10;;;;;;;2.63;2.00;;;10.60;99.90;;;;;;5056705;28;20433;-67
2024/03/29 09:35:38;;;;;;;2.93;2.00;;;10.70;45.30;;;;;;5073654;28;20717;-65
2024/03/29 09:38:06;;;;;;;3.33;1.90;;;10.80;99.90;;;;;;5076865;28;20515;-65
2024/03/29 09:40:34;;;;;;;7.37;6.60;;;10.90;1.00;;;;;;5078054;28;20481;-64
2024/03/29 09:43:03;;;;;;;4.97;3.57;;;11.00;1.00;;;;;;5078574;28;20464;-64
2024/03/29 09:45:34;;;;;;;4.57;2.20;;;11.20;1.00;;;;;;5078770;28;20461;-63
2024/03/29 09:48:04;;;;;;;3.00;2.10;;;11.40;1.00;;;;;;5078380;28;20461;-64
2024/03/29 09:50:33;;;;;;;14.00;9.20;;;11.60;99.90;;;;;;5078278;28;20454;-64
2024/03/29 09:53:01;;;;;;;7.03;4.43;;;11.90;1.00;;;;;;5079351;28;20453;-64
2024/03/29 09:55:29;;;;;;;4.60;3.10;;;12.00;99.90;;;;;;5079321;28;20457;-63
2024/03/29 09:57:57;;;;;;;3.37;2.37;;;12.20;1.00;;;;;;5078899;28;20488;-63
2024/03/29 10:00:24;;;;;;;4.57;2.60;;;12.20;53.70;;;;;;5078312;28;20536;-63
2024/03/29 10:02:57;;;;;;;3.00;1.97;;;12.20;99.90;;;;;;5079004;28;20467;-63
2024/03/29 10:05:26;;;;;;;4.63;2.07;;;12.40;99.90;;;;;;5079160;28;20895;-63
2024/03/29 10:07:56;;;;;;;3.00;1.57;;;12.50;99.90;;;;;;5079188;28;20464;-64
2024/03/29 10:10:24;;;;;;;2.40;1.80;;;12.70;99.90;;;;;;5078239;28;20938;-63
2024/03/29 10:12:52;;;;;;;3.33;3.00;;;12.80;1.00;;;;;;5078983;28;20501;-63
2024/03/29 10:15:21;;;;;;;3.60;2.63;;;12.90;1.00;;;;;;5079423;28;20501;-64
2024/03/29 10:17:49;;;;;;;5.60;4.70;;;13.00;1.00;;;;;;5079216;28;20741;-64
2024/03/29 10:20:18;;;;;;;4.23;3.17;;;13.00;99.90;;;;;;5076980;28;20496;-64
2024/03/29 10:22:47;;;;;;;6.00;4.30;;;13.00;99.90;;;;;;5078287;28;20720;-64
2024/03/29 10:25:17;;;;;;;3.37;3.07;;;13.00;99.90;;;;;;5077726;28;20461;-64
2024/03/29 10:27:44;;;;;;;2.80;2.10;;;13.00;91.70;;;;;;5078807;28;20457;-63
2024/03/29 10:30:17;;;;;;;3.97;3.20;;;13.10;97.80;;;;;;5078721;28;20952;-63
2024/03/29 10:32:44;;;;;;;3.37;3.03;;;13.20;99.90;;;;;;5078440;28;20469;-64
2024/03/29 10:35:12;;;;;;;4.10;3.70;;;13.30;99.90;;;;;;5078222;28;20469;-62
2024/03/29 10:37:44;;;;;;;4.60;3.37;;;13.40;8.00;;;;;;5078294;28;20461;-63
2024/03/29 10:40:15;;;;;;;3.97;3.20;;;13.50;2.70;;;;;;5078046;28;20547;-61
2024/03/29 10:42:47;;;;;;;5.13;2.80;;;13.60;1.00;;;;;;5078361;28;20461;-64
2024/03/29 10:45:16;;;;;;;2.97;1.80;;;13.80;1.00;;;;;;5078422;28;20464;-64
2024/03/29 10:47:46;;;;;;;2.87;2.27;;;13.80;1.00;;;;;;5078030;28;20471;-63
2024/03/29 10:50:14;;;;;;;5.37;3.40;;;13.90;1.00;;;;;;5078216;28;20454;-64
2024/03/29 10:52:41;;;;;;;3.93;2.40;;;14.00;1.00;;;;;;5077923;28;20468;-62
2024/03/29 10:55:11;;;;;;;4.13;3.10;;;14.10;99.90;;;;;;5077391;28;20501;-63
2024/03/29 10:57:44;;;;;;;3.07;2.33;;;14.00;1.00;;;;;;5077531;28;20465;-63
2024/03/29 11:00:18;;;;;;;2.50;2.10;;;13.90;1.00;;;;;;5076633;28;20914;-63
2024/03/29 11:02:51;;;;;;;6.83;2.30;;;13.90;99.90;;;;;;5077403;28;20460;-63
2024/03/29 11:05:20;;;;;;;2.47;2.10;;;13.90;1.00;;;;;;5077282;28;20757;-63
2024/03/29 11:07:53;;;;;;;2.77;2.17;;;13.80;2.20;;;;;;5077433;28;20897;-63
2024/03/29 11:10:29;;;;;;;3.77;2.00;;;13.80;1.00;;;;;;5076823;28;20575;-62
2024/03/29 11:13:03;;;;;;;3.00;2.67;;;13.70;1.00;;;;;;5077374;28;20892;-61
2024/03/29 11:15:32;;;;;;;2.10;1.40;;;13.70;1.00;;;;;;5077495;28;20751;-62
2024/03/29 11:18:00;;;;;;;3.37;1.70;;;13.60;1.00;;;;;;5077180;28;20510;-62
2024/03/29 11:20:36;;;;;;;2.60;1.80;;;13.60;1.00;;;;;;5077235;28;20907;-64
2024/03/29 11:23:09;;;;;;;2.70;1.70;;;13.40;1.00;;;;;;5077559;28;20457;-63
2024/03/29 11:25:48;;;;;;;3.00;1.70;;;13.40;1.00;;;;;;5077716;28;20510;-62
2024/03/29 11:28:26;;;;;;;2.90;2.00;;;13.50;1.00;;;;;;5077039;28;20464;-62
2024/03/29 11:30:57;;;;;;;2.47;1.73;;;13.60;1.00;;;;;;5077125;28;20532;-62
2024/03/29 11:33:29;;;;;;;2.10;1.70;;;13.60;1.00;;;;;;5077418;28;20729;-61
2024/03/29 11:35:57;;;;;;;2.97;1.80;;;13.60;1.00;;;;;;5077296;28;20457;-61
2024/03/29 11:38:35;;;;;;;2.20;2.00;;;13.50;1.00;;;;;;5077264;28;20464;-62
2024/03/29 11:41:07;;;;;;;3.30;1.93;;;13.50;1.00;;;;;;5077144;28;20493;-62
2024/03/29 11:43:38;;;;;;;2.63;2.10;;;13.40;1.00;;;;;;5077649;28;20436;-61
2024/03/29 11:46:10;;;;;;;2.57;1.90;;;13.30;99.90;;;;;;5077074;28;20760;-61
2024/03/29 11:48:38;;;;;;;3.70;2.27;;;13.20;99.90;;;;;;5077036;28;20480;-65
2024/03/29 11:51:08;;;;;;;2.27;1.87;;;13.10;99.90;;;;;;5076565;28;20461;-64
2024/03/29 11:53:36;;;;;;;4.03;2.80;;;13.10;1.00;;;;;;5076348;28;20811;-64
2024/03/29 11:56:05;;;;;;;2.80;1.80;;;13.00;1.00;;;;;;5076558;28;20461;-66
2024/03/29 11:58:36;;;;;;;3.23;1.80;;;13.10;99.90;;;;;;5076704;28;20496;-62
2024/03/29 12:01:05;;;;;;;2.30;2.00;;;13.00;99.90;;;;;;5076687;28;20494;-65
2024/03/29 12:03:34;;;;;;;3.47;1.90;;;13.00;99.90;;;;;;5076267;28;20461;-65
2024/03/29 12:06:02;;;;;;;2.93;1.70;;;12.80;1.00;;;;;;5075389;28;20457;-64
2024/03/29 12:08:32;;;;;;;3.33;1.90;;;12.80;1.00;;;;;;5076547;28;20515;-64
2024/03/29 12:11:00;;;;;;;3.33;1.97;;;13.00;99.90;;;;;;5076443;28;20509;-64
2024/03/29 12:13:28;;;;;;;4.33;1.93;;;13.30;1.00;;;;;;5076109;28;20560;-63
2024/03/29 12:15:57;;;;;;;3.60;1.90;;;13.50;99.90;;;;;;5076342;28;20461;-63
2024/03/29 12:18:27;;;;;;;2.40;1.90;;;13.70;99.90;;;;;;5075287;28;20458;-63
2024/03/29 12:20:56;;;;;;;2.57;1.97;;;13.60;99.90;;;;;;5075578;28;20506;-61
2024/03/29 12:23:23;;;;;;;2.33;1.83;;;13.50;1.00;;;;;;5079554;28;20457;-63
2024/03/29 12:25:55;;;;;;;2.40;1.80;;;13.40;1.00;;;;;;5080194;28;20456;-61
2024/03/29 12:28:24;;;;;;;2.57;1.90;;;13.30;1.00;;;;;;5079132;28;20435;-63
2024/03/29 12:30:52;;;;;;;2.20;1.70;;;13.30;99.90;;;;;;5078967;28;20507;-62
2024/03/29 12:33:24;;;;;;;2.20;1.83;;;13.20;99.90;;;;;;5078981;28;20483;-63
2024/03/29 12:35:54;;;;;;;2.73;1.90;;;13.30;1.00;;;;;;5078884;28;20457;-63
2024/03/29 12:38:26;;;;;;;4.27;1.83;;;13.50;1.00;;;;;;5078236;28;20461;-62
2024/03/29 12:40:55;;;;;;;3.63;1.93;;;13.60;99.90;;;;;;5077603;28;20484;-61
2024/03/29 12:43:25;;;;;;;3.47;2.43;;;13.60;99.90;;;;;;5078915;28;20462;-62
2024/03/29 12:45:53;;;;;;;4.70;2.30;;;13.70;99.90;;;;;;5079431;28;20453;-62
2024/03/29 12:48:24;;;;;;;2.97;1.87;;;13.80;99.90;;;;;;5077331;28;20461;-62
2024/03/29 12:50:52;;;;;;;3.20;2.00;;;13.90;99.90;;;;;;5079908;28;20483;-61
2024/03/29 12:53:19;;;;;;;3.27;1.83;;;13.90;99.90;;;;;;5079335;28;20465;-61
2024/03/29 12:55:48;;;;;;;2.70;2.10;;;13.80;99.90;;;;;;5080050;28;20786;-62
2024/03/29 12:58:20;;;;;;;4.40;1.97;;;13.70;1.00;;;;;;5079962;28;20488;-64
2024/03/29 13:00:48;;;;;;;3.03;1.97;;;13.60;21.40;;;;;;5079964;28;20481;-64
2024/03/29 13:03:16;;;;;;;2.40;1.90;;;13.60;99.90;;;;;;5061370;28;20461;-65
2024/03/29 13:05:46;;;;;;;4.27;2.57;;;13.50;99.90;;;;;;5079994;28;20469;-65
2024/03/29 13:08:15;;;;;;;2.23;1.60;;;13.30;99.90;;;;;;5061517;28;20457;-66
2024/03/29 13:10:43;;;;;;;2.70;1.80;;;13.10;99.90;;;;;;5078864;28;20652;-66
2024/03/29 13:13:11;;;;;;;2.17;1.53;;;13.00;99.90;;;;;;5079852;28;20468;-68
2024/03/29 13:15:41;;;;;;;2.17;1.30;;;12.80;99.90;;;;;;5079203;28;20489;-66
2024/03/29 13:18:09;;;;;;;2.60;1.80;;;12.80;44.80;;;;;;5079055;28;20468;-66
2024/03/29 13:20:40;;;;;;;4.00;1.90;;;12.90;1.00;;;;;;5079016;28;20599;-68
2024/03/29 13:23:10;;;;;;;2.40;1.50;;;12.90;46.30;;;;;;5078948;28;20498;-67
2024/03/29 13:25:39;;;;;;;4.20;1.70;;;12.90;1.00;;;;;;5079298;28;20497;-67
2024/03/29 13:28:07;;;;;;;2.47;1.67;;;13.00;99.90;;;;;;5078806;28;20878;-67
2024/03/29 13:30:42;;;;;;;3.70;1.80;;;13.10;99.90;;;;;;5078814;28;20496;-67
2024/03/29 13:33:11;;;;;;;2.40;1.90;;;13.20;1.00;;;;;;5078436;28;20547;-66
2024/03/29 13:35:39;;;;;;;2.60;1.80;;;13.30;99.90;;;;;;5078862;28;20457;-66
2024/03/29 13:38:09;;;;;;;2.73;1.50;;;13.40;99.90;;;;;;5078412;28;20472;-64
2024/03/29 13:40:36;;;;;;;2.60;1.97;;;13.60;99.90;;;;;;5078564;28;20485;-65
2024/03/29 13:43:07;;;;;;;2.40;1.70;;;13.70;1.00;;;;;;5079022;28;20468;-65
2024/03/29 13:45:37;;;;;;;3.37;1.60;;;13.80;1.00;;;;;;5078884;28;20773;-64
2024/03/29 13:48:08;;;;;;;2.77;1.80;;;13.90;99.90;;;;;;5078545;28;20457;-64
2024/03/29 13:50:35;;;;;;;5.40;3.23;;;14.00;95.90;;;;;;5077778;28;20492;-64
2024/03/29 13:53:03;;;;;;;5.70;2.80;;;14.10;1.00;;;;;;5077396;28;20452;-64
2024/03/29 13:55:32;;;;;;;15.53;11.07;;;14.30;99.90;;;;;;5077655;28;20785;-64
2024/03/29 13:58:00;;;;;;;7.70;5.17;;;14.20;99.90;;;;;;5077881;28;20457;-64
2024/03/29 14:00:27;;;;;;;16.33;10.77;;;14.30;99.90;;;;;;5078593;28;20757;-63
2024/03/29 14:02:56;;;;;;;19.80;12.60;;;14.40;56.90;;;;;;5078154;28;20463;-65
2024/03/29 14:05:23;;;;;;;17.20;11.20;;;14.80;1.00;;;;;;5078506;28;20759;-64
2024/03/29 14:07:51;;;;;;;9.00;6.90;;;15.20;1.00;;;;;;5078397;28;20859;-65
2024/03/29 14:10:19;;;;;;;10.10;6.67;;;15.50;1.00;;;;;;5078677;28;20889;-64
2024/03/29 14:12:50;;;;;;;6.10;4.90;;;15.80;99.90;;;;;;5079439;28;20461;-64
2024/03/29 14:15:19;;;;;;;9.97;6.33;;;15.90;99.90;;;;;;5079954;28;20804;-62
2024/03/29 14:17:47;;;;;;;9.20;5.77;;;16.20;1.00;;;;;;5080089;28;20788;-65
2024/03/29 14:20:15;;;;;;;6.57;5.00;;;16.50;99.90;;;;;;5079551;28;20487;-64
2024/03/29 14:22:42;;;;;;;4.03;3.07;;;16.70;99.90;;;;;;5078609;28;20489;-64
2024/03/29 14:25:11;;;;;;;7.40;5.30;;;16.40;1.00;;;;;;5078019;28;20457;-64
2024/03/29 14:27:54;;;;;;;12.90;8.90;;;16.00;1.00;;;;;;5079122;28;20813;-64
2024/03/29 14:30:23;;;;;;;8.40;4.93;;;15.30;1.00;;;;;;5078396;28;20465;-64
2024/03/29 14:32:52;;;;;;;7.70;5.30;;;15.20;99.90;;;;;;5078696;28;20806;-64
2024/03/29 14:35:21;;;;;;;4.80;3.50;;;15.20;60.60;;;;;;5079656;28;20439;-63
2024/03/29 14:37:48;;;;;;;6.90;4.13;;;15.20;1.00;;;;;;5076663;28;20475;-64
2024/03/29 14:40:16;;;;;;;6.00;2.80;;;14.90;99.90;;;;;;5079054;28;20457;-63
2024/03/29 14:42:44;;;;;;;6.73;4.40;;;14.70;99.90;;;;;;5078652;28;20508;-64
2024/03/29 14:45:14;;;;;;;3.40;2.70;;;14.50;99.90;;;;;;5078603;28;20463;-64
2024/03/29 14:47:44;;;;;;;2.50;2.20;;;14.40;99.90;;;;;;5078000;28;20526;-64
2024/03/29 14:50:12;;;;;;;3.30;2.27;;;14.30;1.00;;;;;;5076585;28;20484;-64
2024/03/29 14:52:40;;;;;;;5.77;4.30;;;14.30;1.00;;;;;;5075954;28;20766;-64